sensor_id;sensor_type;location;lat;lon;timestamp;P1;P4;P2;P0;N10;N4;N25;N1;N05;TS
78730;SPS30;68055;51.978;5.658;2023-11-19T00:00:25;8.3;8.3;8.3;7.9;;;;1.0;185.0;
78730;SPS30;68055;51.978;5.658;2023-11-19T00:02:54;6.1;6.1;6.1;5.9;;;;1.0;176.0;
78730;SPS30;68055;51.978;5.658;2023-11-19T00:05:23;6.2;6.2;6.2;5.9;;;;1.0;175.0;
78730;SPS30;68055;51.978;5.658;2023-11-19T00:07:51;7.3;7.3;7.3;7.0;;;;1.0;147.0;
78730;SPS30;68055;51.978;5.658;2023-11-19T00:10:20;6.0;6.0;6.0;5.7;;;;1.0;149.0;
78730;SPS30;68055;51.978;5.658;2023-11-19T00:12:49;6.0;6.0;6.0;5.7;;;;1.0;149.0;
78730;SPS30;68055;51.978;5.658;2023-11-19T00:15:19;6.0;6.0;6.0;5.8;;;;1.0;141.0;
78730;SPS30;68055;51.978;5.658;2023-11-19T00:17:50;9.6;9.6;9.6;9.1;;;;1.0;166.0;
78730;SPS30;68055;51.978;5.658;2023-11-19T00:20:19;12.8;12.8;12.8;12.2;;;;1.0;156.0;
78730;SPS30;68055;51.978;5.658;2023-11-19T00:22:48;16.9;16.9;16.9;16.1;;;;1.0;161.0;
78730;SPS30;68055;51.978;5.658;2023-11-19T00:25:19;13.3;13.3;13.3;12.6;;;;1.0;175.0;
78730;SPS30;68055;51.978;5.658;2023-11-19T00:27:49;8.2;8.2;8.2;7.8;;;;1.0;159.0;
78730;SPS30;68055;51.978;5.658;2023-11-19T00:30:19;10.4;10.4;10.4;9.9;;;;1.0;144.0;
78730;SPS30;68055;51.978;5.658;2023-11-19T00:32:48;9.6;9.6;9.6;9.1;;;;1.0;137.0;
78730;SPS30;68055;51.978;5.658;2023-11-19T00:35:19;6.3;6.3;6.3;6.0;;;;1.0;138.0;
78730;SPS30;68055;51.978;5.658;2023-11-19T00:37:48;5.8;5.8;5.8;5.5;;;;1.0;122.0;
78730;SPS30;68055;51.978;5.658;2023-11-19T00:40:17;5.5;5.5;5.5;5.2;;;;1.0;127.0;
78730;SPS30;68055;51.978;5.658;2023-11-19T00:42:47;5.3;5.3;5.2;4.8;;;;1.0;110.0;
78730;SPS30;68055;51.978;5.658;2023-11-19T00:45:16;4.8;4.7;4.6;4.3;;;;1.0;98.0;
78730;SPS30;68055;51.978;5.658;2023-11-19T00:47:45;4.9;4.8;4.7;4.4;;;;1.0;99.0;
78730;SPS30;68055;51.978;5.658;2023-11-19T00:50:13;4.5;4.5;4.4;4.0;;;;1.0;98.0;
78730;SPS30;68055;51.978;5.658;2023-11-19T00:52:42;4.7;4.6;4.5;4.1;;;;1.0;98.0;
78730;SPS30;68055;51.978;5.658;2023-11-19T00:55:10;4.5;4.4;4.2;3.9;;;;1.0;96.0;
78730;SPS30;68055;51.978;5.658;2023-11-19T00:57:39;4.9;4.8;4.7;4.3;;;;1.0;90.0;
78730;SPS30;68055;51.978;5.658;2023-11-19T01:00:08;4.5;4.4;4.3;3.9;;;;1.0;88.0;
78730;SPS30;68055;51.978;5.658;2023-11-19T01:02:44;4.6;4.5;4.4;4.1;;;;1.0;70.0;
78730;SPS30;68055;51.978;5.658;2023-11-19T01:05:15;4.7;4.6;4.4;4.0;;;;1.0;78.0;
78730;SPS30;68055;51.978;5.658;2023-11-19T01:07:47;4.7;4.6;4.5;4.0;;;;1.0;79.0;
78730;SPS30;68055;51.978;5.658;2023-11-19T01:10:16;5.1;5.0;4.7;4.1;;;;1.0;77.0;
78730;SPS30;68055;51.978;5.658;2023-11-19T01:12:45;4.9;4.8;4.6;4.1;;;;1.0;77.0;
78730;SPS30;68055;51.978;5.658;2023-11-19T01:15:13;5.1;4.9;4.6;4.1;;;;1.0;77.0;
78730;SPS30;68055;51.978;5.658;2023-11-19T01:17:44;5.3;5.1;4.7;4.0;;;;1.0;76.0;
78730;SPS30;68055;51.978;5.658;2023-11-19T01:20:13;4.5;4.4;4.2;3.7;;;;1.0;73.0;
78730;SPS30;68055;51.978;5.658;2023-11-19T01:22:42;5.1;5.0;4.6;4.0;;;;1.0;67.0;
78730;SPS30;68055;51.978;5.658;2023-11-19T01:25:10;4.6;4.4;4.1;3.6;;;;1.0;70.0;
78730;SPS30;68055;51.978;5.658;2023-11-19T01:27:40;5.5;5.3;4.9;4.2;;;;1.0;70.0;
78730;SPS30;68055;51.978;5.658;2023-11-19T01:30:09;5.7;5.5;5.0;4.1;;;;1.0;69.0;
78730;SPS30;68055;51.978;5.658;2023-11-19T01:32:39;5.9;5.6;5.1;4.2;;;;1.0;68.0;
78730;SPS30;68055;51.978;5.658;2023-11-19T01:35:08;6.2;5.9;5.3;4.3;;;;1.0;67.0;
78730;SPS30;68055;51.978;5.658;2023-11-19T01:37:37;4.3;4.1;3.7;3.0;;;;1.0;64.0;
78730;SPS30;68055;51.978;5.658;2023-11-19T01:40:06;5.0;4.8;4.3;3.5;;;;1.0;63.0;
78730;SPS30;68055;51.978;5.658;2023-11-19T01:42:38;5.7;5.4;4.8;4.0;;;;1.0;64.0;
78730;SPS30;68055;51.978;5.658;2023-11-19T01:45:07;5.8;5.4;4.7;3.6;;;;1.0;64.0;
78730;SPS30;68055;51.978;5.658;2023-11-19T01:47:36;6.1;5.7;5.0;3.9;;;;1.0;59.0;
78730;SPS30;68055;51.978;5.658;2023-11-19T01:50:07;5.9;5.5;4.7;3.6;;;;1.0;55.0;
78730;SPS30;68055;51.978;5.658;2023-11-19T01:52:38;5.9;5.5;4.7;3.5;;;;1.0;54.0;
78730;SPS30;68055;51.978;5.658;2023-11-19T01:55:08;6.1;5.6;4.8;3.5;;;;1.0;54.0;
78730;SPS30;68055;51.978;5.658;2023-11-19T01:57:39;5.6;5.2;4.4;3.3;;;;1.0;54.0;
78730;SPS30;68055;51.978;5.658;2023-11-19T02:00:09;6.3;5.9;5.0;3.7;;;;1.0;53.0;
78730;SPS30;68055;51.978;5.658;2023-11-19T02:02:40;6.2;5.8;4.9;3.6;;;;1.0;53.0;
78730;SPS30;68055;51.978;5.658;2023-11-19T02:05:10;5.6;5.2;4.4;3.3;;;;1.0;52.0;
78730;SPS30;68055;51.978;5.658;2023-11-19T02:07:40;5.0;4.7;4.1;3.1;;;;1.0;54.0;
78730;SPS30;68055;51.978;5.658;2023-11-19T02:10:10;6.4;5.9;5.0;3.7;;;;1.0;54.0;
78730;SPS30;68055;51.978;5.658;2023-11-19T02:12:41;6.2;5.8;4.8;3.4;;;;1.0;45.0;
78730;SPS30;68055;51.978;5.658;2023-11-19T02:15:11;7.3;6.7;5.4;3.6;;;;1.0;42.0;
78730;SPS30;68055;51.978;5.658;2023-11-19T02:17:39;6.9;6.3;4.9;3.2;;;;1.0;41.0;
78730;SPS30;68055;51.978;5.658;2023-11-19T02:20:10;7.7;7.0;5.5;3.5;;;;1.0;40.0;
78730;SPS30;68055;51.978;5.658;2023-11-19T02:22:41;8.8;8.0;6.3;4.0;;;;1.0;40.0;
78730;SPS30;68055;51.978;5.658;2023-11-19T02:25:12;8.6;7.8;6.0;3.7;;;;1.0;39.0;
78730;SPS30;68055;51.978;5.658;2023-11-19T02:27:55;8.2;7.4;5.7;3.5;;;;1.0;35.0;
78730;SPS30;68055;51.978;5.658;2023-11-19T02:30:27;9.6;8.6;6.6;3.9;;;;1.0;32.0;
78730;SPS30;68055;51.978;5.658;2023-11-19T02:32:56;8.4;7.5;5.8;3.5;;;;1.0;33.0;
78730;SPS30;68055;51.978;5.658;2023-11-19T02:35:27;10.6;9.5;7.2;4.1;;;;1.0;33.0;
78730;SPS30;68055;51.978;5.658;2023-11-19T02:37:57;9.5;8.6;6.5;3.9;;;;1.0;34.0;
78730;SPS30;68055;51.978;5.658;2023-11-19T02:40:27;8.5;7.6;5.8;3.4;;;;1.0;35.0;
78730;SPS30;68055;51.978;5.658;2023-11-19T02:42:57;8.9;8.0;6.2;3.7;;;;1.0;35.0;
78730;SPS30;68055;51.978;5.658;2023-11-19T02:45:31;9.1;8.3;6.4;4.0;;;;1.0;33.0;
78730;SPS30;68055;51.978;5.658;2023-11-19T02:47:59;10.9;9.8;7.4;4.3;;;;1.0;30.0;
78730;SPS30;68055;51.978;5.658;2023-11-19T02:50:32;10.6;9.4;6.9;3.7;;;;1.0;26.0;
78730;SPS30;68055;51.978;5.658;2023-11-19T02:53:03;9.9;8.8;6.6;3.7;;;;1.0;24.0;
78730;SPS30;68055;51.978;5.658;2023-11-19T02:55:32;11.0;9.8;7.3;4.0;;;;1.0;24.0;
78730;SPS30;68055;51.978;5.658;2023-11-19T02:58:04;13.5;12.0;8.8;4.7;;;;1.0;24.0;
78730;SPS30;68055;51.978;5.658;2023-11-19T03:00:39;11.5;10.2;7.6;4.1;;;;1.0;23.0;
78730;SPS30;68055;51.978;5.658;2023-11-19T03:03:13;10.6;9.5;7.0;3.9;;;;1.0;24.0;
78730;SPS30;68055;51.978;5.658;2023-11-19T03:05:46;13.6;12.1;8.9;4.8;;;;1.0;24.0;
78730;SPS30;68055;51.978;5.658;2023-11-19T03:08:15;12.9;11.5;8.5;4.6;;;;1.0;23.0;
78730;SPS30;68055;51.978;5.658;2023-11-19T03:10:44;12.5;11.1;8.2;4.4;;;;1.0;20.0;
78730;SPS30;68055;51.978;5.658;2023-11-19T03:13:13;13.5;12.0;8.7;4.5;;;;1.0;19.0;
78730;SPS30;68055;51.978;5.658;2023-11-19T03:15:43;13.6;12.0;8.7;4.4;;;;1.0;16.0;
78730;SPS30;68055;51.978;5.658;2023-11-19T03:18:12;15.3;13.5;9.7;4.8;;;;1.0;16.0;
78730;SPS30;68055;51.978;5.658;2023-11-19T03:20:40;14.4;12.8;9.3;4.8;;;;1.0;16.0;
78730;SPS30;68055;51.978;5.658;2023-11-19T03:23:09;13.9;12.3;8.9;4.5;;;;1.0;16.0;
78730;SPS30;68055;51.978;5.658;2023-11-19T03:25:38;14.7;13.0;9.4;4.8;;;;1.0;17.0;
78730;SPS30;68055;51.978;5.658;2023-11-19T03:28:07;12.5;11.1;8.2;4.4;;;;1.0;18.0;
78730;SPS30;68055;51.978;5.658;2023-11-19T03:30:37;12.0;10.7;7.9;4.2;;;;1.0;18.0;
78730;SPS30;68055;51.978;5.658;2023-11-19T03:33:06;13.2;11.7;8.6;4.6;;;;1.0;18.0;
78730;SPS30;68055;51.978;5.658;2023-11-19T03:35:36;12.7;11.2;8.0;3.9;;;;1.0;18.0;
78730;SPS30;68055;51.978;5.658;2023-11-19T03:38:07;14.3;12.7;9.2;4.7;;;;1.0;18.0;
78730;SPS30;68055;51.978;5.658;2023-11-19T03:40:37;13.9;12.2;8.8;4.4;;;;1.0;18.0;
78730;SPS30;68055;51.978;5.658;2023-11-19T03:43:06;14.5;12.8;9.2;4.6;;;;1.0;17.0;
78730;SPS30;68055;51.978;5.658;2023-11-19T03:45:39;17.5;15.4;10.9;5.2;;;;1.0;16.0;
78730;SPS30;68055;51.978;5.658;2023-11-19T03:48:07;13.7;12.1;8.7;4.3;;;;1.0;15.0;
78730;SPS30;68055;51.978;5.658;2023-11-19T03:50:38;15.2;13.5;9.7;4.8;;;;1.0;15.0;
78730;SPS30;68055;51.978;5.658;2023-11-19T03:53:07;16.4;14.5;10.4;5.2;;;;1.0;15.0;
78730;SPS30;68055;51.978;5.658;2023-11-19T03:55:36;13.5;11.9;8.5;4.2;;;;1.0;14.0;
78730;SPS30;68055;51.978;5.658;2023-11-19T03:58:05;15.6;13.8;9.9;5.1;;;;1.0;13.0;
78730;SPS30;68055;51.978;5.658;2023-11-19T04:00:33;13.9;12.3;8.9;4.6;;;;1.0;12.0;
78730;SPS30;68055;51.978;5.658;2023-11-19T04:03:02;14.7;13.0;9.4;4.8;;;;1.0;13.0;
78730;SPS30;68055;51.978;5.658;2023-11-19T04:05:31;14.8;13.1;9.4;4.7;;;;1.0;14.0;
78730;SPS30;68055;51.978;5.658;2023-11-19T04:07:59;14.5;12.8;9.2;4.5;;;;1.0;14.0;
78730;SPS30;68055;51.978;5.658;2023-11-19T04:10:28;14.8;13.1;9.5;4.8;;;;1.0;13.0;
78730;SPS30;68055;51.978;5.658;2023-11-19T04:12:56;14.8;13.1;9.5;4.9;;;;1.0;13.0;
78730;SPS30;68055;51.978;5.658;2023-11-19T04:15:25;15.2;13.4;9.8;5.2;;;;1.0;12.0;
78730;SPS30;68055;51.978;5.658;2023-11-19T04:17:54;16.3;14.4;10.4;5.3;;;;1.0;12.0;
78730;SPS30;68055;51.978;5.658;2023-11-19T04:20:22;14.3;12.8;9.4;5.1;;;;1.0;12.0;
78730;SPS30;68055;51.978;5.658;2023-11-19T04:22:51;13.9;12.4;9.2;5.1;;;;1.0;12.0;
78730;SPS30;68055;51.978;5.658;2023-11-19T04:25:20;16.0;14.2;10.5;5.6;;;;1.0;11.0;
78730;SPS30;68055;51.978;5.658;2023-11-19T04:27:49;15.8;14.0;10.2;5.3;;;;1.0;11.0;
78730;SPS30;68055;51.978;5.658;2023-11-19T04:30:18;15.3;13.6;9.8;5.0;;;;1.0;11.0;
78730;SPS30;68055;51.978;5.658;2023-11-19T04:32:46;13.8;12.3;9.0;4.8;;;;1.0;10.0;
78730;SPS30;68055;51.978;5.658;2023-11-19T04:35:16;14.8;13.2;9.6;5.0;;;;1.0;9.0;
78730;SPS30;68055;51.978;5.658;2023-11-19T04:37:45;15.5;13.7;9.9;5.0;;;;1.0;8.0;
78730;SPS30;68055;51.978;5.658;2023-11-19T04:40:14;18.0;15.8;11.2;5.3;;;;2.0;7.0;
78730;SPS30;68055;51.978;5.658;2023-11-19T04:42:48;15.7;13.8;9.9;4.8;;;;2.0;6.0;
78730;SPS30;68055;51.978;5.658;2023-11-19T04:45:19;18.0;15.8;11.2;5.2;;;;2.0;6.0;
78730;SPS30;68055;51.978;5.658;2023-11-19T04:47:47;17.8;15.7;11.2;5.5;;;;2.0;5.0;
78730;SPS30;68055;51.978;5.658;2023-11-19T04:50:16;15.3;13.4;9.5;4.5;;;;2.0;5.0;
78730;SPS30;68055;51.978;5.658;2023-11-19T04:52:45;15.7;13.8;9.8;4.7;;;;2.0;5.0;
78730;SPS30;68055;51.978;5.658;2023-11-19T04:55:14;17.0;15.0;10.8;5.4;;;;2.0;5.0;
78730;SPS30;68055;51.978;5.658;2023-11-19T04:57:44;13.5;12.0;8.7;4.5;;;;2.0;5.0;
78730;SPS30;68055;51.978;5.658;2023-11-19T05:00:15;14.2;12.6;9.2;4.8;;;;2.0;5.0;
78730;SPS30;68055;51.978;5.658;2023-11-19T05:02:43;15.7;13.9;10.0;5.1;;;;2.0;5.0;
78730;SPS30;68055;51.978;5.658;2023-11-19T05:05:12;15.1;13.3;9.6;4.8;;;;2.0;6.0;
78730;SPS30;68055;51.978;5.658;2023-11-19T05:07:41;17.7;15.6;11.0;5.1;;;;2.0;6.0;
78730;SPS30;68055;51.978;5.658;2023-11-19T05:10:09;17.2;15.2;10.7;5.1;;;;2.0;6.0;
78730;SPS30;68055;51.978;5.658;2023-11-19T05:12:38;14.5;12.8;9.2;4.5;;;;2.0;6.0;
78730;SPS30;68055;51.978;5.658;2023-11-19T05:15:08;17.8;15.7;11.1;5.3;;;;2.0;6.0;
78730;SPS30;68055;51.978;5.658;2023-11-19T05:17:38;13.6;12.0;8.5;4.0;;;;2.0;6.0;
78730;SPS30;68055;51.978;5.658;2023-11-19T05:20:07;16.5;14.6;10.3;4.9;;;;2.0;6.0;
78730;SPS30;68055;51.978;5.658;2023-11-19T05:22:39;16.5;14.6;10.4;5.1;;;;2.0;7.0;
78730;SPS30;68055;51.978;5.658;2023-11-19T05:25:08;17.3;15.3;11.0;5.6;;;;2.0;7.0;
78730;SPS30;68055;51.978;5.658;2023-11-19T05:27:38;16.6;14.6;10.5;5.1;;;;2.0;7.0;
78730;SPS30;68055;51.978;5.658;2023-11-19T05:30:08;15.2;13.4;9.6;4.7;;;;2.0;7.0;
78730;SPS30;68055;51.978;5.658;2023-11-19T05:32:37;17.1;15.1;10.8;5.3;;;;2.0;8.0;
78730;SPS30;68055;51.978;5.658;2023-11-19T05:35:06;15.7;13.8;9.8;4.7;;;;2.0;8.0;
78730;SPS30;68055;51.978;5.658;2023-11-19T05:37:36;17.0;15.0;10.6;5.0;;;;2.0;8.0;
78730;SPS30;68055;51.978;5.658;2023-11-19T05:40:06;16.6;14.6;10.3;4.9;;;;2.0;8.0;
78730;SPS30;68055;51.978;5.658;2023-11-19T05:42:40;16.3;14.3;10.1;4.8;;;;2.0;9.0;
78730;SPS30;68055;51.978;5.658;2023-11-19T05:45:10;16.2;14.3;10.2;4.9;;;;2.0;9.0;
78730;SPS30;68055;51.978;5.658;2023-11-19T05:47:40;14.7;13.0;9.4;4.7;;;;2.0;8.0;
78730;SPS30;68055;51.978;5.658;2023-11-19T05:50:10;16.7;14.8;10.7;5.4;;;;2.0;8.0;
78730;SPS30;68055;51.978;5.658;2023-11-19T05:52:39;14.7;13.0;9.3;4.6;;;;2.0;8.0;
78730;SPS30;68055;51.978;5.658;2023-11-19T05:55:07;15.5;13.6;9.6;4.5;;;;2.0;8.0;
78730;SPS30;68055;51.978;5.658;2023-11-19T05:57:37;18.6;16.3;11.6;5.5;;;;2.0;8.0;
78730;SPS30;68055;51.978;5.658;2023-11-19T06:00:07;15.0;13.2;9.5;4.7;;;;2.0;8.0;
78730;SPS30;68055;51.978;5.658;2023-11-19T06:02:36;18.3;16.1;11.6;5.8;;;;2.0;8.0;
78730;SPS30;68055;51.978;5.658;2023-11-19T06:05:06;16.4;14.5;10.4;5.2;;;;2.0;8.0;
78730;SPS30;68055;51.978;5.658;2023-11-19T06:07:35;17.6;15.6;11.2;5.6;;;;2.0;9.0;
78730;SPS30;68055;51.978;5.658;2023-11-19T06:10:05;16.4;14.5;10.5;5.4;;;;2.0;9.0;
78730;SPS30;68055;51.978;5.658;2023-11-19T06:12:36;16.9;15.0;10.7;5.4;;;;2.0;9.0;
78730;SPS30;68055;51.978;5.658;2023-11-19T06:15:07;18.3;16.0;11.3;5.3;;;;2.0;8.0;
78730;SPS30;68055;51.978;5.658;2023-11-19T06:17:37;17.1;15.0;10.6;5.0;;;;3.0;8.0;
78730;SPS30;68055;51.978;5.658;2023-11-19T06:20:06;17.6;15.5;11.1;5.4;;;;3.0;8.0;
78730;SPS30;68055;51.978;5.658;2023-11-19T06:22:38;14.2;12.6;9.0;4.5;;;;3.0;8.0;
78730;SPS30;68055;51.978;5.658;2023-11-19T06:25:08;16.8;14.8;10.5;5.0;;;;3.0;8.0;
78730;SPS30;68055;51.978;5.658;2023-11-19T06:27:37;17.8;15.6;11.1;5.3;;;;3.0;8.0;
78730;SPS30;68055;51.978;5.658;2023-11-19T06:30:06;16.3;14.4;10.2;4.9;;;;3.0;8.0;
78730;SPS30;68055;51.978;5.658;2023-11-19T06:32:35;16.7;14.7;10.3;4.8;;;;3.0;7.0;
78730;SPS30;68055;51.978;5.658;2023-11-19T06:35:05;17.2;15.2;10.8;5.3;;;;3.0;7.0;
78730;SPS30;68055;51.978;5.658;2023-11-19T06:37:33;16.1;14.2;10.1;4.8;;;;3.0;7.0;
78730;SPS30;68055;51.978;5.658;2023-11-19T06:40:02;17.8;15.7;11.2;5.6;;;;3.0;7.0;
78730;SPS30;68055;51.978;5.658;2023-11-19T06:42:32;17.0;15.0;10.7;5.3;;;;3.0;7.0;
78730;SPS30;68055;51.978;5.658;2023-11-19T06:45:01;15.8;14.0;10.1;5.0;;;;3.0;7.0;
78730;SPS30;68055;51.978;5.658;2023-11-19T06:47:32;16.6;14.7;10.5;5.1;;;;3.0;7.0;
78730;SPS30;68055;51.978;5.658;2023-11-19T06:50:00;15.6;13.7;9.7;4.6;;;;3.0;7.0;
78730;SPS30;68055;51.978;5.658;2023-11-19T06:52:31;15.2;13.5;9.8;5.0;;;;3.0;7.0;
78730;SPS30;68055;51.978;5.658;2023-11-19T06:55:00;19.2;16.9;11.9;5.6;;;;3.0;7.0;
78730;SPS30;68055;51.978;5.658;2023-11-19T06:57:29;17.7;15.5;10.8;4.9;;;;3.0;8.0;
78730;SPS30;68055;51.978;5.658;2023-11-19T06:59:58;18.0;15.8;11.1;5.1;;;;3.0;9.0;
78730;SPS30;68055;51.978;5.658;2023-11-19T07:02:27;17.8;15.6;11.1;5.3;;;;3.0;10.0;
78730;SPS30;68055;51.978;5.658;2023-11-19T07:04:56;18.4;16.1;11.3;5.3;;;;3.0;10.0;
78730;SPS30;68055;51.978;5.658;2023-11-19T07:07:26;14.7;13.0;9.4;4.7;;;;3.0;10.0;
78730;SPS30;68055;51.978;5.658;2023-11-19T07:09:54;15.6;13.8;9.8;4.8;;;;3.0;11.0;
78730;SPS30;68055;51.978;5.658;2023-11-19T07:12:23;17.6;15.5;10.9;5.1;;;;3.0;11.0;
78730;SPS30;68055;51.978;5.658;2023-11-19T07:14:52;17.2;15.1;10.6;4.9;;;;3.0;12.0;
78730;SPS30;68055;51.978;5.658;2023-11-19T07:17:22;17.2;15.1;10.6;4.9;;;;3.0;13.0;
78730;SPS30;68055;51.978;5.658;2023-11-19T07:19:53;18.0;15.8;11.3;5.5;;;;3.0;15.0;
78730;SPS30;68055;51.978;5.658;2023-11-19T07:22:25;17.9;15.8;11.2;5.4;;;;3.0;15.0;
78730;SPS30;68055;51.978;5.658;2023-11-19T07:24:55;15.5;13.7;9.7;4.6;;;;3.0;16.0;
78730;SPS30;68055;51.978;5.658;2023-11-19T07:27:24;17.3;15.2;10.7;5.0;;;;3.0;17.0;
78730;SPS30;68055;51.978;5.658;2023-11-19T07:29:53;15.8;14.0;10.1;5.1;;;;3.0;18.0;
78730;SPS30;68055;51.978;5.658;2023-11-19T07:32:22;14.2;12.5;8.9;4.4;;;;3.0;20.0;
78730;SPS30;68055;51.978;5.658;2023-11-19T07:34:50;17.4;15.4;11.1;5.6;;;;3.0;22.0;
78730;SPS30;68055;51.978;5.658;2023-11-19T07:37:19;16.2;14.3;10.2;5.1;;;;3.0;23.0;
78730;SPS30;68055;51.978;5.658;2023-11-19T07:39:48;15.2;13.5;9.7;4.9;;;;3.0;23.0;
78730;SPS30;68055;51.978;5.658;2023-11-19T07:42:17;17.1;15.1;10.7;5.1;;;;3.0;25.0;
78730;SPS30;68055;51.978;5.658;2023-11-19T07:44:46;16.9;14.9;10.6;5.1;;;;3.0;26.0;
78730;SPS30;68055;51.978;5.658;2023-11-19T07:47:14;16.7;14.7;10.4;5.0;;;;3.0;26.0;
78730;SPS30;68055;51.978;5.658;2023-11-19T07:49:43;15.8;13.9;10.0;4.9;;;;3.0;25.0;
78730;SPS30;68055;51.978;5.658;2023-11-19T07:52:11;17.8;15.7;11.1;5.2;;;;3.0;24.0;
78730;SPS30;68055;51.978;5.658;2023-11-19T07:54:40;17.9;15.8;11.3;5.6;;;;3.0;22.0;
78730;SPS30;68055;51.978;5.658;2023-11-19T07:57:08;17.6;15.5;10.9;5.2;;;;3.0;21.0;
78730;SPS30;68055;51.978;5.658;2023-11-19T07:59:37;17.3;15.2;10.8;5.2;;;;3.0;21.0;
78730;SPS30;68055;51.978;5.658;2023-11-19T08:02:05;17.8;15.7;11.1;5.3;;;;3.0;22.0;
78730;SPS30;68055;51.978;5.658;2023-11-19T08:04:35;15.6;13.8;9.9;4.9;;;;3.0;22.0;
78730;SPS30;68055;51.978;5.658;2023-11-19T08:07:06;15.0;13.3;9.5;4.7;;;;3.0;21.0;
78730;SPS30;68055;51.978;5.658;2023-11-19T08:09:34;14.9;13.1;9.2;4.4;;;;3.0;22.0;
78730;SPS30;68055;51.978;5.658;2023-11-19T08:12:03;15.0;13.2;9.5;4.7;;;;3.0;23.0;
78730;SPS30;68055;51.978;5.658;2023-11-19T08:14:33;18.5;16.4;11.8;5.9;;;;3.0;22.0;
78730;SPS30;68055;51.978;5.658;2023-11-19T08:17:01;13.8;12.2;8.8;4.4;;;;3.0;21.0;
78730;SPS30;68055;51.978;5.658;2023-11-19T08:19:30;17.0;15.0;10.7;5.2;;;;3.0;21.0;
78730;SPS30;68055;51.978;5.658;2023-11-19T08:21:58;16.4;14.5;10.4;5.2;;;;3.0;22.0;
78730;SPS30;68055;51.978;5.658;2023-11-19T08:24:27;16.8;14.8;10.7;5.3;;;;3.0;22.0;
78730;SPS30;68055;51.978;5.658;2023-11-19T08:26:56;14.7;13.1;9.5;4.8;;;;3.0;23.0;
78730;SPS30;68055;51.978;5.658;2023-11-19T08:29:26;17.2;15.1;10.7;5.1;;;;3.0;23.0;
78730;SPS30;68055;51.978;5.658;2023-11-19T08:31:55;17.7;15.6;11.2;5.5;;;;3.0;22.0;
78730;SPS30;68055;51.978;5.658;2023-11-19T08:34:23;13.2;11.7;8.3;4.0;;;;3.0;21.0;
78730;SPS30;68055;51.978;5.658;2023-11-19T08:36:53;16.2;14.3;10.2;5.1;;;;3.0;20.0;
78730;SPS30;68055;51.978;5.658;2023-11-19T08:39:22;16.8;14.9;10.9;5.7;;;;3.0;20.0;
78730;SPS30;68055;51.978;5.658;2023-11-19T08:41:50;14.3;12.8;9.7;5.7;;;;3.0;20.0;
78730;SPS30;68055;51.978;5.658;2023-11-19T08:44:19;13.3;11.8;8.8;4.8;;;;3.0;20.0;
78730;SPS30;68055;51.978;5.658;2023-11-19T08:46:48;14.0;12.4;9.0;4.6;;;;3.0;28.0;
78730;SPS30;68055;51.978;5.658;2023-11-19T08:49:17;14.5;12.8;9.3;4.7;;;;3.0;26.0;
78730;SPS30;68055;51.978;5.658;2023-11-19T08:51:46;14.0;12.4;8.9;4.5;;;;3.0;25.0;
78730;SPS30;68055;51.978;5.658;2023-11-19T08:54:15;16.4;14.5;10.4;5.1;;;;2.0;24.0;
78730;SPS30;68055;51.978;5.658;2023-11-19T08:56:43;16.6;14.5;10.3;4.8;;;;2.0;21.0;
78730;SPS30;68055;51.978;5.658;2023-11-19T08:59:12;14.3;12.6;8.9;4.3;;;;2.0;18.0;
78730;SPS30;68055;51.978;5.658;2023-11-19T09:01:41;15.0;13.2;9.5;4.7;;;;2.0;17.0;
78730;SPS30;68055;51.978;5.658;2023-11-19T09:04:09;16.4;14.4;10.4;5.2;;;;2.0;424.0;
78730;SPS30;68055;51.978;5.658;2023-11-19T09:06:38;15.7;13.8;9.9;5.0;;;;2.0;155.0;
78730;SPS30;68055;51.978;5.658;2023-11-19T09:09:07;16.6;14.6;10.4;5.1;;;;2.0;74.0;
78730;SPS30;68055;51.978;5.658;2023-11-19T09:11:36;16.0;14.1;10.0;4.8;;;;2.0;44.0;
78730;SPS30;68055;51.978;5.658;2023-11-19T09:14:04;16.0;14.1;10.0;4.7;;;;2.0;35.0;
78730;SPS30;68055;51.978;5.658;2023-11-19T09:16:33;14.9;13.2;9.4;4.6;;;;2.0;30.0;
78730;SPS30;68055;51.978;5.658;2023-11-19T09:19:02;15.5;13.7;9.9;5.0;;;;2.0;28.0;
78730;SPS30;68055;51.978;5.658;2023-11-19T09:21:32;16.9;15.0;10.8;5.4;;;;2.0;21.0;
78730;SPS30;68055;51.978;5.658;2023-11-19T09:24:05;16.7;14.7;10.5;5.2;;;;2.0;18.0;
78730;SPS30;68055;51.978;5.658;2023-11-19T09:26:34;13.6;12.0;8.6;4.3;;;;2.0;17.0;
78730;SPS30;68055;51.978;5.658;2023-11-19T09:29:06;15.2;13.5;9.8;5.1;;;;2.0;15.0;
78730;SPS30;68055;51.978;5.658;2023-11-19T09:31:37;16.6;14.7;10.7;5.5;;;;2.0;32.0;
78730;SPS30;68055;51.978;5.658;2023-11-19T09:34:06;14.0;12.4;9.0;4.7;;;;2.0;29.0;
78730;SPS30;68055;51.978;5.658;2023-11-19T09:36:35;15.1;13.3;9.6;4.9;;;;2.0;27.0;
78730;SPS30;68055;51.978;5.658;2023-11-19T09:39:04;13.1;11.7;8.8;5.0;;;;2.0;20.0;
78730;SPS30;68055;51.978;5.658;2023-11-19T09:41:34;15.5;13.9;10.3;5.7;;;;2.0;17.0;
78730;SPS30;68055;51.978;5.658;2023-11-19T09:44:03;14.9;13.3;9.9;5.4;;;;2.0;18.0;
78730;SPS30;68055;51.978;5.658;2023-11-19T09:46:32;17.6;15.6;11.3;5.9;;;;2.0;18.0;
78730;SPS30;68055;51.978;5.658;2023-11-19T09:49:01;16.0;14.2;10.4;5.5;;;;2.0;21.0;
78730;SPS30;68055;51.978;5.658;2023-11-19T09:51:33;15.1;13.4;9.7;4.9;;;;2.0;22.0;
78730;SPS30;68055;51.978;5.658;2023-11-19T09:54:02;17.0;15.0;10.6;5.0;;;;2.0;22.0;
78730;SPS30;68055;51.978;5.658;2023-11-19T09:56:31;16.1;14.2;10.2;5.1;;;;2.0;24.0;
78730;SPS30;68055;51.978;5.658;2023-11-19T09:59:04;13.7;12.1;8.8;4.6;;;;2.0;25.0;
78730;SPS30;68055;51.978;5.658;2023-11-19T10:01:33;16.4;14.4;10.3;5.0;;;;2.0;24.0;
78730;SPS30;68055;51.978;5.658;2023-11-19T10:04:02;16.0;14.0;10.0;4.8;;;;2.0;23.0;
78730;SPS30;68055;51.978;5.658;2023-11-19T10:06:31;15.9;14.1;10.3;5.4;;;;2.0;23.0;
78730;SPS30;68055;51.978;5.658;2023-11-19T10:09:00;13.5;11.9;8.7;4.6;;;;2.0;21.0;
78730;SPS30;68055;51.978;5.658;2023-11-19T10:11:31;18.6;16.6;12.4;7.0;;;;2.0;19.0;
78730;SPS30;68055;51.978;5.658;2023-11-19T10:13:59;14.7;13.1;9.7;5.3;;;;2.0;18.0;
78730;SPS30;68055;51.978;5.658;2023-11-19T10:16:29;18.4;16.4;12.0;6.4;;;;2.0;18.0;
78730;SPS30;68055;51.978;5.658;2023-11-19T10:18:59;19.1;16.9;12.2;6.3;;;;2.0;18.0;
78730;SPS30;68055;51.978;5.658;2023-11-19T10:21:29;15.5;13.8;10.1;5.4;;;;2.0;18.0;
78730;SPS30;68055;51.978;5.658;2023-11-19T10:24:00;18.9;16.8;12.4;6.7;;;;2.0;19.0;
78730;SPS30;68055;51.978;5.658;2023-11-19T10:26:31;15.8;14.2;10.6;6.1;;;;2.0;18.0;
78730;SPS30;68055;51.978;5.658;2023-11-19T10:29:00;15.6;13.9;10.2;5.4;;;;2.0;18.0;
78730;SPS30;68055;51.978;5.658;2023-11-19T10:31:30;15.0;13.4;9.9;5.4;;;;2.0;18.0;
78730;SPS30;68055;51.978;5.658;2023-11-19T10:33:58;16.3;14.5;10.8;6.0;;;;2.0;18.0;
78730;SPS30;68055;51.978;5.658;2023-11-19T10:36:38;16.7;14.9;11.1;6.1;;;;2.0;18.0;
78730;SPS30;68055;51.978;5.658;2023-11-19T10:39:09;12.5;11.2;8.4;4.8;;;;2.0;19.0;
78730;SPS30;68055;51.978;5.658;2023-11-19T10:41:39;14.7;13.1;9.7;5.3;;;;2.0;18.0;
78730;SPS30;68055;51.978;5.658;2023-11-19T10:44:08;14.9;13.2;9.7;5.2;;;;2.0;19.0;
78730;SPS30;68055;51.978;5.658;2023-11-19T10:46:39;14.6;13.0;9.7;5.4;;;;2.0;19.0;
78730;SPS30;68055;51.978;5.658;2023-11-19T10:49:09;13.5;12.0;8.9;4.9;;;;2.0;19.0;
78730;SPS30;68055;51.978;5.658;2023-11-19T10:51:39;13.5;12.1;9.0;5.1;;;;2.0;19.0;
78730;SPS30;68055;51.978;5.658;2023-11-19T10:54:15;12.6;11.2;8.1;4.1;;;;2.0;19.0;
78730;SPS30;68055;51.978;5.658;2023-11-19T10:56:47;15.0;13.2;9.6;4.9;;;;2.0;18.0;
78730;SPS30;68055;51.978;5.658;2023-11-19T10:59:28;15.8;14.0;10.1;5.1;;;;2.0;16.0;
78730;SPS30;68055;51.978;5.658;2023-11-19T11:01:59;17.3;15.2;10.7;5.0;;;;2.0;15.0;
78730;SPS30;68055;51.978;5.658;2023-11-19T11:04:37;15.9;14.0;9.9;4.7;;;;2.0;14.0;
78730;SPS30;68055;51.978;5.658;2023-11-19T11:07:09;13.2;11.7;8.5;4.4;;;;2.0;14.0;
78730;SPS30;68055;51.978;5.658;2023-11-19T11:09:38;15.3;13.5;9.7;4.8;;;;2.0;14.0;
78730;SPS30;68055;51.978;5.658;2023-11-19T11:12:09;14.5;12.8;9.2;4.5;;;;2.0;14.0;
78730;SPS30;68055;51.978;5.658;2023-11-19T11:14:38;13.5;11.9;8.5;4.2;;;;2.0;13.0;
78730;SPS30;68055;51.978;5.658;2023-11-19T11:17:10;12.8;11.3;8.1;4.1;;;;2.0;13.0;
78730;SPS30;68055;51.978;5.658;2023-11-19T11:19:45;13.3;11.7;8.3;3.9;;;;2.0;14.0;
78730;SPS30;68055;51.978;5.658;2023-11-19T11:22:14;14.6;12.9;9.2;4.6;;;;2.0;14.0;
78730;SPS30;68055;51.978;5.658;2023-11-19T11:24:51;13.6;12.0;8.6;4.3;;;;2.0;14.0;
78730;SPS30;68055;51.978;5.658;2023-11-19T11:27:43;15.4;13.5;9.6;4.7;;;;2.0;13.0;
78730;SPS30;68055;51.978;5.658;2023-11-19T11:30:28;13.1;11.6;8.4;4.2;;;;2.0;12.0;
78730;SPS30;68055;51.978;5.658;2023-11-19T11:33:20;15.7;13.9;9.9;4.9;;;;2.0;12.0;
78730;SPS30;68055;51.978;5.658;2023-11-19T11:35:53;16.8;14.8;10.5;5.1;;;;2.0;12.0;
78730;SPS30;68055;51.978;5.658;2023-11-19T11:38:31;16.7;14.6;10.2;4.6;;;;2.0;11.0;
78730;SPS30;68055;51.978;5.658;2023-11-19T11:41:19;16.3;14.3;10.1;4.6;;;;2.0;17.0;
78730;SPS30;68055;51.978;5.658;2023-11-19T11:43:49;13.8;12.2;8.7;4.3;;;;2.0;16.0;
78730;SPS30;68055;51.978;5.658;2023-11-19T11:47:06;14.7;13.0;9.3;4.5;;;;2.0;15.0;
78730;SPS30;68055;51.978;5.658;2023-11-19T11:49:34;13.3;11.8;8.5;4.3;;;;2.0;17.0;
78730;SPS30;68055;51.978;5.658;2023-11-19T11:52:03;14.3;12.6;9.1;4.6;;;;2.0;18.0;
78730;SPS30;68055;51.978;5.658;2023-11-19T11:54:33;12.0;10.6;7.8;4.2;;;;2.0;19.0;
78730;SPS30;68055;51.978;5.658;2023-11-19T11:57:03;12.4;11.0;8.1;4.3;;;;2.0;20.0;
78730;SPS30;68055;51.978;5.658;2023-11-19T11:59:55;13.2;11.7;8.6;4.5;;;;2.0;20.0;
78730;SPS30;68055;51.978;5.658;2023-11-19T12:02:24;11.6;10.3;7.6;4.0;;;;2.0;20.0;
78730;SPS30;68055;51.978;5.658;2023-11-19T12:04:54;10.4;9.2;6.8;3.5;;;;2.0;20.0;
78730;SPS30;68055;51.978;5.658;2023-11-19T12:07:23;10.4;9.2;6.7;3.4;;;;2.0;20.0;
78730;SPS30;68055;51.978;5.658;2023-11-19T12:09:57;10.8;9.6;7.0;3.6;;;;2.0;21.0;